NOS946 LIMC-ZSNJ
Flight info
| Callsign | NOS946 |
|---|---|
| Flight time | N/A |
| Altitude | 35000 |
| Route | VAKON DCT OTKEK DCT CHI DCT ULPIN DCT SONIK DCT NISVA DCT UDROS UM859 KARDE UN644 ROLIN/N0487F370 DCT FOQUS DCT DISKA M737 VERCA M747 LUSAL N199 RASAM L88 METKA B476 TIMGA A480 OTBOR/K0922F370 N147 GENGA N143 RUDIZ N161 BURID/K0909F391 N161 GILAK/K0907F390 N161 SARIN/K0907S1190 A368 FKG W192 ESDEX W191 DNC W565 BIGUX B330 VIMAM W235 UBRAB B213 WHA R343 HFE W51 LEGIV W164 OREVO |
| Aircraft | B789/H-SDE1E2E3FGHIJ2J3J4J5M1RWXY/LB1D1 |
Departure
| Time | N/A |
|---|---|
| Airport | Milan Malpensa International Airport (LIMC) |
Arrival
| Time | 2026-05-01 08:41 |
|---|---|
| Airport | Nanjing Lukou International Airport (ZSNJ) |
| Time | Latitude | Longitude | Altitude | Speed | Heading |
|---|---|---|---|---|---|
| 2026-05-01 08:17 | 31.54789 | 116.57867 | 34922 ft | 556 kts | 65° |
| 2026-05-01 08:17 | 31.56156 | 116.62144 | 34925 ft | 556 kts | 65° |
| 2026-05-01 08:17 | 31.57504 | 116.66365 | 34731 ft | 548 kts | 66° |
| 2026-05-01 08:18 | 31.58834 | 116.70540 | 34022 ft | 545 kts | 66° |
| 2026-05-01 08:18 | 31.61475 | 116.78829 | 32558 ft | 539 kts | 66° |
| 2026-05-01 08:19 | 31.64079 | 116.87033 | 31056 ft | 534 kts | 66° |
| 2026-05-01 08:19 | 31.65373 | 116.91114 | 30273 ft | 532 kts | 66° |
| 2026-05-01 08:19 | 31.66660 | 116.95180 | 29412 ft | 530 kts | 67° |
| 2026-05-01 08:19 | 31.67937 | 116.99223 | 28589 ft | 526 kts | 67° |
| 2026-05-01 08:20 | 31.69205 | 117.03246 | 27716 ft | 524 kts | 68° |
| 2026-05-01 08:20 | 31.70447 | 117.07263 | 26819 ft | 523 kts | 68° |
| 2026-05-01 08:20 | 31.71676 | 117.11279 | 25898 ft | 523 kts | 68° |
| 2026-05-01 08:20 | 31.72915 | 117.15292 | 24971 ft | 522 kts | 68° |
| 2026-05-01 08:21 | 31.74153 | 117.19301 | 24038 ft | 522 kts | 70° |
| 2026-05-01 08:21 | 31.75001 | 117.23443 | 23052 ft | 523 kts | 82° |
| 2026-05-01 08:21 | 31.75164 | 117.27681 | 22136 ft | 517 kts | 94° |
| 2026-05-01 08:21 | 31.74675 | 117.31825 | 21217 ft | 509 kts | 105° |
| 2026-05-01 08:22 | 31.73578 | 117.35728 | 20328 ft | 499 kts | 116° |
| 2026-05-01 08:22 | 31.71942 | 117.39276 | 19455 ft | 489 kts | 126° |
| 2026-05-01 08:22 | 31.69996 | 117.42510 | 18596 ft | 482 kts | 128° |
| 2026-05-01 08:22 | 31.68061 | 117.45686 | 17717 ft | 475 kts | 129° |
| 2026-05-01 08:23 | 31.66173 | 117.48760 | 16907 ft | 466 kts | 129° |
| 2026-05-01 08:23 | 31.64304 | 117.51819 | 16091 ft | 457 kts | 128° |
| 2026-05-01 08:23 | 31.62752 | 117.55056 | 15219 ft | 454 kts | 116° |
| 2026-05-01 08:23 | 31.61786 | 117.58562 | 14439 ft | 450 kts | 104° |
| 2026-05-01 08:24 | 31.61435 | 117.62156 | 13637 ft | 431 kts | 92° |
| 2026-05-01 08:24 | 31.61641 | 117.65635 | 12885 ft | 424 kts | 84° |
| 2026-05-01 08:24 | 31.61975 | 117.69045 | 12149 ft | 417 kts | 85° |
| 2026-05-01 08:24 | 31.62308 | 117.72398 | 11430 ft | 411 kts | 85° |
| 2026-05-01 08:25 | 31.62635 | 117.75688 | 10950 ft | 398 kts | 85° |
| 2026-05-01 08:25 | 31.62943 | 117.78822 | 10771 ft | 376 kts | 85° |
| 2026-05-01 08:25 | 31.63231 | 117.81781 | 10612 ft | 349 kts | 85° |
| 2026-05-01 08:25 | 31.63495 | 117.84473 | 10459 ft | 319 kts | 85° |
| 2026-05-01 08:26 | 31.63740 | 117.87002 | 10341 ft | 305 kts | 85° |
| 2026-05-01 08:26 | 31.63977 | 117.89449 | 10122 ft | 299 kts | 85° |
| 2026-05-01 08:26 | 31.64209 | 117.91858 | 9829 ft | 296 kts | 85° |
| 2026-05-01 08:26 | 31.64441 | 117.94249 | 9527 ft | 293 kts | 85° |
| 2026-05-01 08:27 | 31.64670 | 117.96612 | 9233 ft | 290 kts | 85° |
| 2026-05-01 08:27 | 31.64895 | 117.98944 | 8946 ft | 286 kts | 86° |
| 2026-05-01 08:27 | 31.65113 | 118.01220 | 8667 ft | 283 kts | 86° |
| 2026-05-01 08:27 | 31.65332 | 118.03498 | 8386 ft | 280 kts | 86° |
| 2026-05-01 08:28 | 31.65548 | 118.05755 | 8106 ft | 277 kts | 86° |
| 2026-05-01 08:28 | 31.65762 | 118.07994 | 7833 ft | 275 kts | 86° |
| 2026-05-01 08:28 | 31.65975 | 118.10216 | 7556 ft | 275 kts | 86° |
| 2026-05-01 08:28 | 31.66189 | 118.12468 | 7276 ft | 271 kts | 86° |
| 2026-05-01 08:29 | 31.66397 | 118.14640 | 7001 ft | 269 kts | 86° |
| 2026-05-01 08:29 | 31.66603 | 118.16836 | 6731 ft | 270 kts | 86° |
| 2026-05-01 08:29 | 31.66642 | 118.18996 | 6454 ft | 263 kts | 95° |
| 2026-05-01 08:29 | 31.66655 | 118.21133 | 6187 ft | 266 kts | 91° |
| 2026-05-01 08:30 | 31.66696 | 118.23294 | 5899 ft | 261 kts | 92° |
| 2026-05-01 08:30 | 31.66708 | 118.25413 | 5617 ft | 261 kts | 93° |
| 2026-05-01 08:30 | 31.66707 | 118.27544 | 5348 ft | 261 kts | 93° |
| 2026-05-01 08:30 | 31.66712 | 118.29668 | 5091 ft | 258 kts | 92° |
| 2026-05-01 08:31 | 31.66722 | 118.31751 | 4825 ft | 255 kts | 93° |
| 2026-05-01 08:31 | 31.66728 | 118.33842 | 4558 ft | 256 kts | 92° |
| 2026-05-01 08:31 | 31.66734 | 118.35901 | 4288 ft | 248 kts | 92° |
| 2026-05-01 08:31 | 31.66740 | 118.37896 | 4073 ft | 239 kts | 92° |
| 2026-05-01 08:32 | 31.66746 | 118.39805 | 3931 ft | 229 kts | 92° |
| 2026-05-01 08:32 | 31.66728 | 118.41621 | 3801 ft | 216 kts | 99° |
| 2026-05-01 08:32 | 31.66187 | 118.43226 | 3830 ft | 214 kts | 122° |
| 2026-05-01 08:32 | 31.65554 | 118.44843 | 3817 ft | 217 kts | 115° |
| 2026-05-01 08:33 | 31.64967 | 118.46478 | 3817 ft | 218 kts | 116° |
| 2026-05-01 08:33 | 31.64338 | 118.48105 | 3818 ft | 218 kts | 117° |
| 2026-05-01 08:33 | 31.63693 | 118.49734 | 3723 ft | 219 kts | 116° |
| 2026-05-01 08:33 | 31.63082 | 118.51292 | 3614 ft | 200 kts | 117° |
| 2026-05-01 08:34 | 31.62519 | 118.52724 | 3454 ft | 190 kts | 116° |
| 2026-05-01 08:34 | 31.61973 | 118.54117 | 3317 ft | 187 kts | 117° |
| 2026-05-01 08:34 | 31.61435 | 118.55488 | 3192 ft | 186 kts | 117° |
| 2026-05-01 08:34 | 31.60898 | 118.56845 | 3060 ft | 182 kts | 117° |
| 2026-05-01 08:35 | 31.60364 | 118.58202 | 2959 ft | 181 kts | 117° |
| 2026-05-01 08:35 | 31.60056 | 118.59615 | 2801 ft | 182 kts | 90° |
| 2026-05-01 08:35 | 31.60401 | 118.61085 | 2807 ft | 190 kts | 72° |
| 2026-05-01 08:35 | 31.60890 | 118.62509 | 2805 ft | 188 kts | 71° |
| 2026-05-01 08:36 | 31.61381 | 118.63961 | 2688 ft | 190 kts | 71° |
| 2026-05-01 08:36 | 31.61847 | 118.65397 | 2551 ft | 189 kts | 74° |
| 2026-05-01 08:36 | 31.62120 | 118.66851 | 2428 ft | 176 kts | 81° |
| 2026-05-01 08:36 | 31.62485 | 118.68183 | 2283 ft | 168 kts | 68° |
| 2026-05-01 08:37 | 31.63055 | 118.69315 | 2180 ft | 155 kts | 62° |
| 2026-05-01 08:37 | 31.63626 | 118.70358 | 2171 ft | 150 kts | 61° |
| 2026-05-01 08:37 | 31.64198 | 118.71426 | 2185 ft | 163 kts | 62° |
| 2026-05-01 08:37 | 31.64810 | 118.72567 | 2203 ft | 165 kts | 61° |
| 2026-05-01 08:38 | 31.65423 | 118.73714 | 2049 ft | 163 kts | 61° |
| 2026-05-01 08:38 | 31.65997 | 118.74781 | 1847 ft | 149 kts | 61° |
| 2026-05-01 08:38 | 31.66553 | 118.75824 | 1653 ft | 150 kts | 62° |
| 2026-05-01 08:38 | 31.67101 | 118.76850 | 1449 ft | 146 kts | 61° |
| 2026-05-01 08:39 | 31.67652 | 118.77878 | 1263 ft | 149 kts | 62° |
| 2026-05-01 08:39 | 31.68191 | 118.78889 | 1088 ft | 145 kts | 60° |
| 2026-05-01 08:39 | 31.68745 | 118.79900 | 944 ft | 148 kts | 61° |
| 2026-05-01 08:39 | 31.69281 | 118.80943 | 765 ft | 149 kts | 60° |
| 2026-05-01 08:40 | 31.70365 | 118.82978 | 402 ft | 146 kts | 59° |
| 2026-05-01 08:40 | 31.70913 | 118.83996 | 247 ft | 149 kts | 59° |
| 2026-05-01 08:40 | 31.71463 | 118.85027 | 96 ft | 147 kts | 58° |
| 2026-05-01 08:41 | 31.71949 | 118.85935 | 57 ft | 103 kts | 58° |
| 2026-05-01 08:41 | 31.72228 | 118.86458 | 54 ft | 48 kts | 58° |
| 2026-05-01 08:41 | 31.72373 | 118.86642 | 55 ft | 25 kts | 34° |
| 2026-05-01 08:41 | 31.72454 | 118.86703 | 57 ft | 7 kts | 31° |
| 2026-05-01 08:42 | 31.72463 | 118.86708 | 60 ft | 0 kts | 30° |
| 2026-05-01 08:42 | 31.72469 | 118.86713 | 56 ft | 2 kts | 31° |
| 2026-05-01 08:42 | 31.72491 | 118.86728 | 60 ft | 5 kts | 31° |
| 2026-05-01 08:43 | 31.72526 | 118.86753 | 57 ft | 7 kts | 31° |
| 2026-05-01 08:43 | 31.72573 | 118.86785 | 59 ft | 9 kts | 31° |
| 2026-05-01 08:43 | 31.72626 | 118.86834 | 63 ft | 11 kts | 46° |
| 2026-05-01 08:43 | 31.72673 | 118.86909 | 56 ft | 12 kts | 56° |
| 2026-05-01 08:44 | 31.72722 | 118.87002 | 55 ft | 14 kts | 58° |
| 2026-05-01 08:44 | 31.72777 | 118.87106 | 55 ft | 16 kts | 58° |
| 2026-05-01 08:44 | 31.72838 | 118.87220 | 55 ft | 17 kts | 57° |
| 2026-05-01 08:44 | 31.72906 | 118.87344 | 59 ft | 19 kts | 57° |
| 2026-05-01 08:45 | 31.72976 | 118.87478 | 55 ft | 20 kts | 58° |
| 2026-05-01 08:45 | 31.73052 | 118.87620 | 56 ft | 21 kts | 57° |
| 2026-05-01 08:45 | 31.73125 | 118.87755 | 55 ft | 15 kts | 57° |
| 2026-05-01 08:45 | 31.73187 | 118.87796 | 59 ft | 10 kts | 353° |
| 2026-05-01 08:46 | 31.73257 | 118.87760 | 59 ft | 12 kts | 326° |
| 2026-05-01 08:46 | 31.73275 | 118.87679 | 64 ft | 11 kts | 258° |
| 2026-05-01 08:46 | 31.73237 | 118.87600 | 55 ft | 12 kts | 237° |
| 2026-05-01 08:46 | 31.73190 | 118.87513 | 55 ft | 12 kts | 238° |
| 2026-05-01 08:47 | 31.73196 | 118.87436 | 59 ft | 8 kts | 306° |
| 2026-05-01 08:47 | 31.73224 | 118.87410 | 55 ft | 2 kts | 326° |
| 2026-05-01 08:47 | 31.73236 | 118.87401 | 57 ft | 2 kts | 327° |
| 2026-05-01 08:47 | 31.73237 | 118.87400 | 57 ft | 0 kts | 327° |